Roland Garros Airport
FMEE : now visible

Airfield :











YOU CAN JOIN US ON...

 
LOGIN :

Register | Disclaimer

   EN    FR    IT 

 









Legend :    VFR   Marginal VFR   IFR   Intensive IFR   Very Intensive IFR
Visi :
Ceiling :
>= 8 km
>= 3000ft
5 to 8 km
1000 to 3000 ft
1500m to 5 km
500 to 1000 ft
800 to 1500m
200 to 500 ft
< 800m
< 200 ft
Symbols :   Thunderstorms  Fog  Heavy snow  Heavy precipitations  Wind > 20 kt






- Airport Elevation : 66 ft
- IATA code : RUN


FMEE - Roland Garros

CURRENT METAR :
  • 030800Z AUTO 03005KT 360V060 9999 FEW064 25/17 Q1022 NOSIG

EXPIRED METARs :
  • 030730Z AUTO 02004KT 340V040 CAVOK 25/17 Q1022 NOSIG
  • 030700Z AUTO 03005KT 9999 FEW062 25/17 Q1022 NOSIG
  • 030630Z AUTO 03004KT 350V070 9999 FEW058 25/17 Q1022 NOSIG
  • 030600Z AUTO 03003KT 360V070 9999 BKN058 25/16 Q1022 NOSIG
  • 030530Z AUTO 05003KT 9999 FEW036 SCT056 24/16 Q1022 NOSIG

TAF AMD TAF FMEE
Valid from the 03 at 06:00 until the 04 at 12:00 UTC


030529Z 0306/0412 VRB05KT 9999 FEW035 SCT050
BECMG 0406/0408 04010KT
PROB40
TEMPO 0310/0314 30010KT
BECMG 0314/0316 18006KT
BECMG 0406/0408 12020G30KT
FMMM FIR / Africa



MET'MAP, your aeronautical weather chart ! - Copyright ORBIFLY December 2007 - Disclaimer

ORBIFLY MET'MAP TEAM :

Programming & Development : Alexandra Zaïnal
Concept & original design : Baudouin d'Aumeries
Assistance for programming : Marc-Olivier Méhu
Technical & hardware support : Manuel Goepfert

Contact : metmap@orbifly.com




SOURCES & CREDITS :

   NOAA       Earth
Advisory